Time;durP1;ratioP1;P1;durP2;ratioP2;P2;SDS_P1;SDS_P2;PMS_P1;PMS_P2;Temp;Humidity;BMP_temperature;BMP_pressure;BME280_temperature;BME280_humidity;BME280_pressure;Samples;Min_cycle;Max_cycle;Signal;HPM_P1;HPM_P2
2024/01/28 00:02:38;;;;;;;11.30;7.10;;;;;;;2.21;100.00;100847.02;109186;1253;65710;-61
2024/01/28 00:05:06;;;;;;;11.00;7.30;;;;;;;2.22;100.00;100849.37;109187;1253;72713;-60
2024/01/28 00:07:33;;;;;;;12.90;8.90;;;;;;;2.23;100.00;100849.30;109202;1253;59498;-60
2024/01/28 00:10:01;;;;;;;14.30;9.90;;;;;;;2.22;100.00;100847.69;109196;1254;59393;-60
2024/01/28 00:12:29;;;;;;;12.50;8.70;;;;;;;2.19;100.00;100851.98;109274;1253;74664;-64
2024/01/28 00:14:57;;;;;;;13.10;9.20;;;;;;;2.16;100.00;100849.09;109228;1253;65634;-60
2024/01/28 00:17:24;;;;;;;12.10;8.80;;;;;;;2.14;100.00;100851.63;109170;1253;72768;-59
2024/01/28 00:19:52;;;;;;;12.60;8.70;;;;;;;2.13;100.00;100854.83;109191;1253;59681;-61
2024/01/28 00:22:20;;;;;;;13.80;9.30;;;;;;;2.13;100.00;100852.80;109248;1253;58986;-62
2024/01/28 00:24:49;;;;;;;13.10;9.70;;;;;;;2.13;100.00;100852.75;109178;1253;75267;-60
2024/01/28 00:27:17;;;;;;;13.40;9.30;;;;;;;2.14;100.00;100853.70;109233;1253;66030;-60
2024/01/28 00:29:44;;;;;;;14.10;10.30;;;;;;;2.14;100.00;100855.78;109184;1253;73322;-61
2024/01/28 00:32:12;;;;;;;15.90;9.20;;;;;;;2.15;100.00;100856.71;109206;1253;59703;-60
2024/01/28 00:34:40;;;;;;;14.80;10.10;;;;;;;2.16;100.00;100857.71;109243;1253;58873;-64
2024/01/28 00:37:10;;;;;;;14.20;9.60;;;;;;;2.16;100.00;100857.88;109257;1253;74684;-60
2024/01/28 00:39:37;;;;;;;14.60;9.70;;;;;;;2.15;100.00;100861.52;109260;1253;67121;-60
2024/01/28 00:42:05;;;;;;;14.70;9.90;;;;;;;2.16;100.00;100863.38;109266;1253;70456;-60
2024/01/28 00:44:33;;;;;;;15.00;10.30;;;;;;;2.15;100.00;100866.50;109305;1253;59388;-60
2024/01/28 00:47:00;;;;;;;16.00;10.90;;;;;;;2.14;100.00;100866.56;109221;1253;59131;-60
2024/01/28 00:49:31;;;;;;;17.30;10.50;;;;;;;2.15;100.00;100869.23;109254;1253;74732;-60
2024/01/28 00:51:59;;;;;;;18.30;12.00;;;;;;;2.14;100.00;100867.21;109283;1252;67145;-60
2024/01/28 00:54:27;;;;;;;17.90;11.60;;;;;;;2.11;100.00;100867.11;109246;1253;72726;-60
2024/01/28 00:56:56;;;;;;;19.30;12.50;;;;;;;2.10;100.00;100871.33;109179;1253;59781;-61
2024/01/28 00:59:23;;;;;;;18.40;12.00;;;;;;;2.08;100.00;100871.27;109290;1252;60473;-60
2024/01/28 01:01:52;;;;;;;18.20;12.20;;;;;;;2.09;100.00;100870.09;109196;1253;74735;-60
2024/01/28 01:04:20;;;;;;;16.30;11.20;;;;;;;2.09;100.00;100873.31;109192;1253;67228;-60
2024/01/28 01:06:49;;;;;;;14.30;10.10;;;;;;;2.04;100.00;100871.13;109274;1253;71433;-60
2024/01/28 01:09:17;;;;;;;14.50;9.90;;;;;;;2.01;100.00;100873.91;109159;1255;61314;-60
2024/01/28 01:11:45;;;;;;;14.30;9.50;;;;;;;1.98;100.00;100871.36;109130;1253;61129;-60
2024/01/28 01:14:12;;;;;;;13.90;10.00;;;;;;;1.93;100.00;100873.40;109125;1253;73474;-61
2024/01/28 01:16:40;;;;;;;17.00;11.30;;;;;;;1.90;100.00;100876.41;109187;1253;67183;-62
2024/01/28 01:19:08;;;;;;;13.00;8.90;;;;;;;1.87;100.00;100875.98;109142;1253;72517;-64
2024/01/28 01:21:35;;;;;;;16.10;10.40;;;;;;;1.84;100.00;100877.39;109141;1253;59968;-60
2024/01/28 01:24:03;;;;;;;17.60;12.10;;;;;;;1.82;100.00;100879.38;109175;1254;58863;-60
2024/01/28 01:26:31;;;;;;;17.40;11.70;;;;;;;1.82;100.00;100879.90;109361;1253;74663;-60
2024/01/28 01:28:59;;;;;;;15.20;10.30;;;;;;;1.82;100.00;100882.83;109375;1253;67027;-61
2024/01/28 01:31:27;;;;;;;14.90;10.20;;;;;;;1.79;100.00;100882.02;109273;1253;72680;-60
2024/01/28 01:33:54;;;;;;;15.20;9.60;;;;;;;1.78;100.00;100886.04;109154;1253;59382;-61
2024/01/28 01:36:23;;;;;;;14.50;9.90;;;;;;;1.77;100.00;100888.50;109185;1253;60100;-60
2024/01/28 01:38:50;;;;;;;11.50;8.70;;;;;;;1.75;100.00;100889.51;109170;1253;74749;-64
2024/01/28 01:41:18;;;;;;;13.00;8.60;;;;;;;1.74;100.00;100892.31;109123;1255;66966;-59
2024/01/28 01:43:46;;;;;;;14.00;9.50;;;;;;;1.74;100.00;100900.77;109174;1253;72735;-60
2024/01/28 01:46:13;;;;;;;14.70;9.60;;;;;;;1.75;100.00;100906.97;109160;1255;59012;-62
2024/01/28 01:48:41;;;;;;;14.00;9.90;;;;;;;1.74;100.00;100909.92;109122;1253;60038;-60
2024/01/28 01:51:09;;;;;;;14.30;8.90;;;;;;;1.73;100.00;100910.88;109010;1253;73813;-61
2024/01/28 01:53:37;;;;;;;13.50;9.10;;;;;;;1.73;100.00;100916.69;109150;1253;65671;-60
2024/01/28 01:56:05;;;;;;;14.20;9.90;;;;;;;1.72;100.00;100918.33;109224;1253;72817;-60
2024/01/28 01:58:33;;;;;;;15.80;10.50;;;;;;;1.71;100.00;100924.22;109281;1253;58930;-60
2024/01/28 02:01:01;;;;;;;15.20;10.00;;;;;;;1.69;100.00;100926.91;109099;1253;59050;-64
2024/01/28 02:03:28;;;;;;;18.10;10.10;;;;;;;1.68;100.00;100925.11;109125;1253;74041;-60
2024/01/28 02:05:56;;;;;;;16.70;11.00;;;;;;;1.66;100.00;100926.45;109192;1253;66962;-59
2024/01/28 02:08:24;;;;;;;19.20;12.80;;;;;;;1.65;100.00;100929.23;109173;1253;70521;-60
2024/01/28 02:10:52;;;;;;;21.50;13.90;;;;;;;1.65;100.00;100929.23;109086;1254;58938;-61
2024/01/28 02:13:19;;;;;;;19.90;14.20;;;;;;;1.64;100.00;100928.45;109087;1254;60132;-65
2024/01/28 02:15:47;;;;;;;22.30;14.40;;;;;;;1.64;100.00;100931.59;109071;1254;74945;-60
2024/01/28 02:18:14;;;;;;;24.30;14.80;;;;;;;1.60;100.00;100932.33;109054;1254;66800;-60
2024/01/28 02:20:42;;;;;;;23.10;15.00;;;;;;;1.60;100.00;100932.73;109079;1254;71110;-60
2024/01/28 02:23:10;;;;;;;21.10;14.00;;;;;;;1.59;100.00;100934.16;109067;1254;59306;-62
2024/01/28 02:25:37;;;;;;;22.30;14.90;;;;;;;1.58;100.00;100937.28;109104;1253;59053;-60
2024/01/28 02:28:05;;;;;;;24.70;14.80;;;;;;;1.58;100.00;100937.14;109248;1253;73619;-59
2024/01/28 02:30:35;;;;;;;22.30;14.10;;;;;;;1.57;100.00;100938.77;109199;1253;66948;-60
2024/01/28 02:33:03;;;;;;;22.80;14.00;;;;;;;1.56;100.00;100943.79;109163;1253;72103;-60
2024/01/28 02:35:31;;;;;;;26.40;16.00;;;;;;;1.56;100.00;100945.30;109079;1253;59920;-59
2024/01/28 02:37:59;;;;;;;25.40;16.20;;;;;;;1.57;100.00;100953.77;109113;1253;59026;-60
2024/01/28 02:40:26;;;;;;;22.80;15.70;;;;;;;1.59;100.00;100958.63;109112;1253;74656;-60
2024/01/28 02:42:54;;;;;;;24.90;16.40;;;;;;;1.60;100.00;100961.16;109267;1253;66752;-59
2024/01/28 02:45:21;;;;;;;23.70;15.40;;;;;;;1.61;100.00;100966.73;109235;1252;72369;-60
2024/01/28 02:47:49;;;;;;;25.30;16.00;;;;;;;1.61;100.00;100970.67;109306;1253;60533;-59
2024/01/28 02:50:17;;;;;;;26.90;15.80;;;;;;;1.60;100.00;100973.17;109152;1253;59055;-60
2024/01/28 02:52:44;;;;;;;24.40;15.40;;;;;;;1.59;100.00;100971.68;109213;1253;74770;-60
2024/01/28 02:55:12;;;;;;;26.60;16.50;;;;;;;1.59;100.00;100974.72;109158;1253;67110;-61
2024/01/28 02:57:40;;;;;;;24.70;16.00;;;;;;;1.60;100.00;100982.55;109183;1253;72863;-61
2024/01/28 03:00:08;;;;;;;21.90;14.50;;;;;;;1.60;100.00;100984.75;109130;1253;60899;-61
2024/01/28 03:02:37;;;;;;;22.40;15.50;;;;;;;1.61;100.00;100989.83;109078;1253;59159;-61
2024/01/28 03:05:05;;;;;;;24.10;14.90;;;;;;;1.62;100.00;100990.13;109052;1253;74974;-60
2024/01/28 03:07:33;;;;;;;21.60;14.70;;;;;;;1.64;100.00;100987.27;109142;1253;67079;-63
2024/01/28 03:10:01;;;;;;;25.20;16.50;;;;;;;1.64;100.00;100992.38;109258;1253;70893;-59
2024/01/28 03:12:28;;;;;;;23.60;16.00;;;;;;;1.65;100.00;100993.52;109320;1253;59541;-60
2024/01/28 03:14:56;;;;;;;22.20;14.10;;;;;;;1.64;100.00;100998.16;109238;1253;60075;-59
2024/01/28 03:17:24;;;;;;;23.80;14.70;;;;;;;1.63;100.00;101006.32;109228;1253;74867;-63
2024/01/28 03:19:51;;;;;;;21.20;14.10;;;;;;;1.62;100.00;101005.92;109232;1253;67031;-59
2024/01/28 03:22:19;;;;;;;28.00;15.90;;;;;;;1.58;100.00;101006.85;109254;1253;73089;-59
2024/01/28 03:24:48;;;;;;;24.50;15.30;;;;;;;1.55;100.00;101010.64;109249;1252;58929;-59
2024/01/28 03:27:16;;;;;;;24.00;15.40;;;;;;;1.53;100.00;101017.11;109259;1252;60092;-59
2024/01/28 03:29:43;;;;;;;23.30;14.60;;;;;;;1.51;100.00;101020.69;109153;1253;74765;-59
2024/01/28 03:32:11;;;;;;;22.60;13.60;;;;;;;1.51;100.00;101021.59;109305;1253;66946;-59
2024/01/28 03:34:38;;;;;;;24.30;14.60;;;;;;;1.51;100.00;101023.81;109346;1253;72715;-59
2024/01/28 03:37:06;;;;;;;23.70;15.10;;;;;;;1.50;100.00;101025.04;109129;1253;60198;-59
2024/01/28 03:39:34;;;;;;;28.30;15.70;;;;;;;1.50;100.00;101028.50;109238;1253;58906;-62
2024/01/28 03:42:02;;;;;;;23.70;14.60;;;;;;;1.49;100.00;101029.42;109171;1253;73430;-59
2024/01/28 03:44:29;;;;;;;25.50;15.40;;;;;;;1.47;100.00;101032.08;109209;1253;66941;-58
2024/01/28 03:46:57;;;;;;;25.10;14.40;;;;;;;1.50;100.00;101032.29;109196;1253;72684;-60
2024/01/28 03:49:24;;;;;;;28.00;17.10;;;;;;;1.49;100.00;101035.39;109180;1255;58997;-60
2024/01/28 03:51:52;;;;;;;28.00;16.60;;;;;;;1.48;100.00;101039.39;109213;1253;60491;-59
2024/01/28 03:54:20;;;;;;;27.00;17.80;;;;;;;1.47;100.00;101043.77;109290;1253;74730;-59
2024/01/28 03:56:47;;;;;;;25.80;16.60;;;;;;;1.46;100.00;101046.67;109259;1253;65659;-60
2024/01/28 03:59:15;;;;;;;28.10;15.70;;;;;;;1.48;100.00;101047.98;109242;1253;72721;-59
2024/01/28 04:01:43;;;;;;;28.60;16.60;;;;;;;1.48;100.00;101049.86;109249;1253;60147;-62
2024/01/28 04:04:11;;;;;;;29.80;16.40;;;;;;;1.50;100.00;101054.88;109239;1256;59608;-58
2024/01/28 04:06:43;;;;;;;28.90;17.60;;;;;;;1.53;100.00;101058.09;109262;1253;74708;-59
2024/01/28 04:09:11;;;;;;;28.60;16.90;;;;;;;1.52;100.00;101061.55;109354;1253;66934;-59
2024/01/28 04:11:39;;;;;;;29.30;16.00;;;;;;;1.54;100.00;101064.68;109220;1253;72787;-59
2024/01/28 04:14:07;;;;;;;32.70;18.00;;;;;;;1.53;100.00;101067.30;109198;1253;61513;-59
2024/01/28 04:16:35;;;;;;;31.60;19.00;;;;;;;1.55;100.00;101069.89;109250;1252;60135;-58
2024/01/28 04:19:02;;;;;;;31.90;18.60;;;;;;;1.59;100.00;101073.42;109250;1252;73873;-59
2024/01/28 04:21:35;;;;;;;38.10;20.20;;;;;;;1.62;100.00;101079.06;109259;1253;66941;-58
2024/01/28 04:24:03;;;;;;;35.20;19.20;;;;;;;1.64;100.00;101078.60;109232;1253;72736;-63
2024/01/28 04:26:30;;;;;;;40.00;20.80;;;;;;;1.65;100.00;101078.84;109214;1255;60749;-59
2024/01/28 04:28:58;;;;;;;38.50;21.80;;;;;;;1.63;100.00;101076.20;109253;1252;59175;-59
2024/01/28 04:31:26;;;;;;;39.20;21.50;;;;;;;1.63;100.00;101079.80;109237;1253;74743;-59
2024/01/28 04:33:54;;;;;;;36.90;19.70;;;;;;;1.64;100.00;101083.65;109219;1253;67195;-63
2024/01/28 04:36:22;;;;;;;35.10;19.50;;;;;;;1.69;100.00;101091.06;109238;1253;73529;-59
2024/01/28 04:38:50;;;;;;;40.80;21.60;;;;;;;1.68;100.00;101089.08;109119;1256;59670;-58
2024/01/28 04:41:17;;;;;;;32.90;18.80;;;;;;;1.67;100.00;101091.33;109146;1253;60091;-59
2024/01/28 04:43:45;;;;;;;33.20;19.30;;;;;;;1.63;100.00;101091.11;109179;1253;73796;-59
2024/01/28 04:46:16;;;;;;;34.10;18.70;;;;;;;1.62;100.00;101091.86;109101;1256;67019;-58
2024/01/28 04:48:44;;;;;;;35.20;20.50;;;;;;;1.63;100.00;101093.88;109157;1253;72850;-58
2024/01/28 04:51:12;;;;;;;39.80;21.30;;;;;;;1.63;100.00;101094.21;109133;1253;59643;-59
2024/01/28 04:53:40;;;;;;;36.50;19.80;;;;;;;1.65;100.00;101099.58;109237;1253;60149;-59
2024/01/28 04:56:10;;;;;;;36.00;19.20;;;;;;;1.65;100.00;101100.40;109165;1253;74859;-58
2024/01/28 04:58:37;;;;;;;28.90;17.00;;;;;;;1.67;100.00;101100.79;109256;1253;65826;-59
2024/01/28 05:01:05;;;;;;;26.90;15.40;;;;;;;1.68;100.00;101103.82;109223;1253;72562;-59
2024/01/28 05:03:33;;;;;;;28.20;17.30;;;;;;;1.67;100.00;101110.38;109266;1253;58920;-59
2024/01/28 05:06:04;;;;;;;27.70;16.70;;;;;;;1.69;100.00;101110.60;109220;1253;59002;-63
2024/01/28 05:08:32;;;;;;;27.30;15.80;;;;;;;1.67;100.00;101108.15;109239;1253;75165;-58
2024/01/28 05:10:59;;;;;;;25.90;15.40;;;;;;;1.69;100.00;101113.64;109252;1253;65695;-59
2024/01/28 05:13:27;;;;;;;25.40;15.30;;;;;;;1.68;100.00;101116.32;109222;1253;71421;-59
2024/01/28 05:15:55;;;;;;;25.40;15.30;;;;;;;1.67;100.00;101119.77;109206;1253;59140;-59
2024/01/28 05:18:22;;;;;;;27.60;17.00;;;;;;;1.69;100.00;101126.71;109192;1252;60130;-60
2024/01/28 05:20:50;;;;;;;26.90;16.40;;;;;;;1.70;100.00;101134.67;109259;1253;73717;-59
2024/01/28 05:23:18;;;;;;;24.50;14.50;;;;;;;1.73;100.00;101131.77;109242;1253;67310;-59
2024/01/28 05:25:45;;;;;;;25.30;15.50;;;;;;;1.75;100.00;101137.98;109206;1253;72733;-59
2024/01/28 05:28:14;;;;;;;24.60;15.10;;;;;;;1.75;100.00;101139.52;109229;1253;59410;-64
2024/01/28 05:30:42;;;;;;;23.00;14.30;;;;;;;1.76;100.00;101143.58;109186;1253;60464;-59
2024/01/28 05:33:10;;;;;;;28.20;16.10;;;;;;;1.76;100.00;101145.75;109234;1253;74433;-59
2024/01/28 05:35:38;;;;;;;26.20;14.80;;;;;;;1.74;100.00;101150.19;109185;1253;67085;-59
2024/01/28 05:38:06;;;;;;;22.80;13.30;;;;;;;1.69;100.00;101150.16;109172;1253;71205;-59
2024/01/28 05:40:33;;;;;;;22.90;14.20;;;;;;;1.67;100.00;101156.52;109061;1253;59698;-62
2024/01/28 05:43:01;;;;;;;24.90;15.10;;;;;;;1.66;100.00;101163.58;109170;1253;60489;-60
2024/01/28 05:45:29;;;;;;;22.50;14.50;;;;;;;1.72;100.00;101166.27;109132;1253;75002;-58
2024/01/28 05:48:01;;;;;;;22.00;13.80;;;;;;;1.75;100.00;101171.86;109301;1253;65775;-61
2024/01/28 05:50:29;;;;;;;19.60;12.00;;;;;;;1.79;100.00;101174.02;109219;1253;72457;-60
2024/01/28 05:52:57;;;;;;;20.60;12.60;;;;;;;1.80;100.00;101177.16;109233;1253;59478;-59
2024/01/28 05:55:25;;;;;;;17.60;11.40;;;;;;;1.82;100.00;101180.45;109250;1253;59141;-59
2024/01/28 05:57:53;;;;;;;19.30;11.80;;;;;;;1.81;100.00;101184.16;109222;1253;73370;-58
2024/01/28 06:00:21;;;;;;;17.90;10.90;;;;;;;1.80;100.00;101183.17;109257;1253;66993;-62
2024/01/28 06:02:49;;;;;;;15.00;10.00;;;;;;;1.83;100.00;101184.88;109145;1253;71576;-59
2024/01/28 06:05:16;;;;;;;13.80;9.50;;;;;;;1.85;100.00;101186.10;109241;1253;60942;-58
2024/01/28 06:07:44;;;;;;;13.90;8.70;;;;;;;1.86;100.00;101186.42;109299;1253;59435;-58
2024/01/28 06:10:12;;;;;;;11.50;8.00;;;;;;;1.81;100.00;101186.71;109235;1253;73748;-58
2024/01/28 06:12:40;;;;;;;11.10;7.40;;;;;;;1.75;100.00;101187.98;109157;1253;65960;-63
2024/01/28 06:15:08;;;;;;;12.80;8.10;;;;;;;1.71;100.00;101192.02;109189;1253;71745;-58
2024/01/28 06:17:36;;;;;;;10.30;6.90;;;;;;;1.70;100.00;101188.14;109193;1253;60887;-58
2024/01/28 06:20:05;;;;;;;10.80;7.20;;;;;;;1.69;100.00;101189.74;109200;1253;59478;-58
2024/01/28 06:22:33;;;;;;;9.70;6.80;;;;;;;1.69;100.00;101190.95;109200;1253;74669;-64
2024/01/28 06:25:01;;;;;;;10.10;7.00;;;;;;;1.66;100.00;101194.89;109164;1253;65600;-58
2024/01/28 06:27:29;;;;;;;11.40;7.70;;;;;;;1.67;100.00;101194.17;109197;1253;71473;-59
2024/01/28 06:29:57;;;;;;;10.80;7.50;;;;;;;1.66;100.00;101196.81;109219;1253;59290;-59
2024/01/28 06:32:25;;;;;;;10.10;6.60;;;;;;;1.63;100.00;101197.85;109163;1253;60166;-59
2024/01/28 06:34:52;;;;;;;10.20;6.80;;;;;;;1.63;100.00;101201.29;109263;1253;73376;-62
2024/01/28 06:37:20;;;;;;;9.70;6.80;;;;;;;1.61;100.00;101203.67;109212;1253;65653;-59
2024/01/28 06:39:51;;;;;;;11.50;7.50;;;;;;;1.60;100.00;101208.35;109189;1253;71497;-59
2024/01/28 06:42:19;;;;;;;9.40;6.60;;;;;;;1.62;100.00;101212.51;109209;1253;59284;-58
2024/01/28 06:44:49;;;;;;;11.00;7.40;;;;;;;1.60;100.00;101218.44;109206;1253;59142;-61
2024/01/28 06:47:17;;;;;;;9.50;6.50;;;;;;;1.60;100.00;101218.65;109240;1253;73760;-58
2024/01/28 06:49:45;;;;;;;11.00;7.30;;;;;;;1.59;100.00;101217.15;109237;1253;67443;-58
2024/01/28 06:52:13;;;;;;;11.60;7.60;;;;;;;1.62;100.00;101224.10;109191;1253;72359;-60
2024/01/28 06:54:41;;;;;;;11.00;7.60;;;;;;;1.68;100.00;101223.39;109203;1259;59118;-58
2024/01/28 06:57:13;;;;;;;11.00;7.60;;;;;;;1.76;100.00;101222.35;109258;1253;59449;-59
2024/01/28 06:59:43;;;;;;;11.10;7.30;;;;;;;1.82;100.00;101222.83;109194;1253;75200;-58
2024/01/28 07:02:11;;;;;;;11.10;6.90;;;;;;;1.82;100.00;101220.41;109117;1260;65627;-59
2024/01/28 07:04:39;;;;;;;10.40;6.10;;;;;;;1.83;100.00;101223.59;109165;1253;72914;-58
2024/01/28 07:07:07;;;;;;;10.10;7.00;;;;;;;1.85;100.00;101224.36;109161;1253;59093;-59
2024/01/28 07:09:34;;;;;;;9.70;6.90;;;;;;;1.85;100.00;101223.80;109213;1253;59156;-58
2024/01/28 07:12:03;;;;;;;8.90;6.70;;;;;;;1.88;100.00;101228.23;109258;1253;74676;-58
2024/01/28 07:14:31;;;;;;;8.70;6.20;;;;;;;1.90;100.00;101225.69;109264;1253;65858;-58
2024/01/28 07:16:59;;;;;;;9.10;6.40;;;;;;;1.95;100.00;101231.04;109190;1253;72731;-63
2024/01/28 07:19:27;;;;;;;11.10;6.80;;;;;;;1.99;100.00;101232.29;109189;1253;58950;-58
2024/01/28 07:21:54;;;;;;;10.90;7.30;;;;;;;2.03;100.00;101236.17;109224;1253;60077;-58
2024/01/28 07:24:22;;;;;;;11.90;7.50;;;;;;;2.04;100.00;101237.65;109201;1253;74648;-58
2024/01/28 07:26:50;;;;;;;9.70;6.40;;;;;;;2.07;100.00;101235.04;109216;1253;65676;-58
2024/01/28 07:29:18;;;;;;;9.60;6.50;;;;;;;2.06;100.00;101235.23;109133;1252;72712;-63
2024/01/28 07:31:45;;;;;;;10.00;6.70;;;;;;;2.04;100.00;101239.15;109233;1253;59494;-58
2024/01/28 07:34:15;;;;;;;10.60;7.30;;;;;;;2.06;100.00;101241.58;109243;1253;60119;-58
2024/01/28 07:36:45;;;;;;;11.30;7.30;;;;;;;2.05;100.00;101242.54;109239;1252;74725;-59
2024/01/28 07:39:14;;;;;;;12.30;7.20;;;;;;;2.06;100.00;101246.25;109179;1253;66013;-63
2024/01/28 07:41:42;;;;;;;9.10;6.30;;;;;;;2.04;100.00;101250.13;109190;1252;72738;-58
2024/01/28 07:44:10;;;;;;;8.70;6.40;;;;;;;2.05;100.00;101248.52;109184;1254;59667;-58
2024/01/28 07:46:37;;;;;;;11.30;7.90;;;;;;;2.06;100.00;101254.48;109203;1253;59092;-58
2024/01/28 07:49:06;;;;;;;10.70;7.70;;;;;;;2.05;100.00;101258.81;109174;1253;73482;-64
2024/01/28 07:51:34;;;;;;;10.60;7.40;;;;;;;2.05;100.00;101260.73;109167;1253;66428;-59
2024/01/28 07:54:01;;;;;;;11.20;7.80;;;;;;;2.07;100.00;101261.04;109326;1253;71566;-59
2024/01/28 07:56:29;;;;;;;11.50;8.10;;;;;;;2.12;100.00;101267.77;109124;1253;59000;-58
2024/01/28 07:58:56;;;;;;;11.40;7.80;;;;;;;2.16;100.00;101270.59;109150;1253;60745;-59
2024/01/28 08:01:26;;;;;;;12.10;8.20;;;;;;;2.19;100.00;101273.45;109208;1253;74832;-59
2024/01/28 08:03:54;;;;;;;11.20;7.90;;;;;;;2.24;100.00;101278.30;109204;1253;65727;-58
2024/01/28 08:06:22;;;;;;;13.00;8.80;;;;;;;2.30;100.00;101282.35;109202;1253;72729;-59
2024/01/28 08:08:51;;;;;;;12.80;7.60;;;;;;;2.32;100.00;101286.17;109142;1253;59567;-58
2024/01/28 08:11:18;;;;;;;13.50;9.50;;;;;;;2.30;100.00;101285.28;109154;1253;59508;-64
2024/01/28 08:13:48;;;;;;;13.40;9.50;;;;;;;2.24;100.00;101284.61;109176;1253;74720;-59
2024/01/28 08:16:16;;;;;;;12.80;9.00;;;;;;;2.27;100.00;101287.66;109176;1253;66941;-59
2024/01/28 08:18:43;;;;;;;11.60;8.40;;;;;;;2.31;100.00;101291.35;109193;1253;72736;-58
2024/01/28 08:21:11;;;;;;;12.80;8.70;;;;;;;2.34;100.00;101289.48;109159;1253;61059;-60
2024/01/28 08:23:39;;;;;;;11.20;8.00;;;;;;;2.40;100.00;101290.44;109222;1252;59784;-58
2024/01/28 08:26:08;;;;;;;11.10;7.80;;;;;;;2.47;100.00;101295.10;109191;1253;73466;-59
2024/01/28 08:28:35;;;;;;;8.50;5.70;;;;;;;2.50;100.00;101295.87;109232;1253;67095;-59
2024/01/28 08:31:03;;;;;;;8.00;5.20;;;;;;;2.48;100.00;101293.11;109229;1253;72681;-59
2024/01/28 08:33:31;;;;;;;8.00;5.40;;;;;;;2.47;100.00;101293.90;109113;1253;59697;-59
2024/01/28 08:35:58;;;;;;;7.90;5.50;;;;;;;2.46;100.00;101294.27;109214;1253;60111;-59
2024/01/28 08:38:26;;;;;;;8.40;6.00;;;;;;;2.49;100.00;101295.11;109217;1253;73442;-59
2024/01/28 08:40:53;;;;;;;8.40;5.50;;;;;;;2.53;100.00;101292.95;109218;1253;66797;-58
2024/01/28 08:43:21;;;;;;;8.60;5.90;;;;;;;2.61;100.00;101289.12;109204;1253;72641;-59
2024/01/28 08:45:49;;;;;;;8.80;6.00;;;;;;;2.77;100.00;101288.34;109202;1253;59545;-59
2024/01/28 08:48:17;;;;;;;10.70;6.40;;;;;;;2.97;100.00;101291.58;109187;1253;59157;-58
2024/01/28 08:50:45;;;;;;;9.10;6.80;;;;;;;3.16;100.00;101294.36;109184;1253;73461;-58
2024/01/28 08:53:13;;;;;;;11.00;7.40;;;;;;;3.26;100.00;101292.10;109387;1253;67162;-59
2024/01/28 08:55:41;;;;;;;8.60;6.00;;;;;;;3.35;100.00;101295.41;109185;1256;71432;-59
2024/01/28 08:58:08;;;;;;;8.20;5.30;;;;;;;3.44;100.00;101292.55;109211;1253;60211;-59
2024/01/28 09:00:36;;;;;;;7.50;4.70;;;;;;;3.51;100.00;101288.92;109237;1253;60095;-58
2024/01/28 09:03:04;;;;;;;8.50;5.50;;;;;;;3.60;100.00;101290.44;109180;1253;74730;-59
2024/01/28 09:05:32;;;;;;;7.00;5.00;;;;;;;3.72;100.00;101283.78;109246;1253;66938;-59
2024/01/28 09:08:01;;;;;;;8.10;4.90;;;;;;;3.79;100.00;101282.05;109321;1254;72094;-59
2024/01/28 09:10:28;;;;;;;7.30;4.60;;;;;;;3.84;100.00;101283.73;109185;1253;59326;-59
2024/01/28 09:12:56;;;;;;;7.70;4.60;;;;;;;3.88;100.00;101282.91;109215;1253;58890;-58
2024/01/28 09:15:24;;;;;;;7.10;5.00;;;;;;;3.82;100.00;101284.91;109215;1252;73857;-58
2024/01/28 09:17:52;;;;;;;5.70;3.90;;;;;;;3.67;100.00;101289.62;109215;1258;66013;-63
2024/01/28 09:20:19;;;;;;;5.80;3.50;;;;;;;3.48;100.00;101286.23;109165;1253;71612;-59
2024/01/28 09:22:47;;;;;;;6.50;4.30;;;;;;;3.30;100.00;101293.74;109198;1256;60950;-59
2024/01/28 09:25:15;;;;;;;7.40;4.40;;;;;;;3.17;100.00;101290.12;109170;1254;59039;-58
2024/01/28 09:27:48;;;;;;;6.50;4.20;;;;;;;3.11;100.00;101293.52;109235;1252;74764;-59
2024/01/28 09:30:16;;;;;;;7.40;4.90;;;;;;;3.00;100.00;101296.67;109193;1253;66953;-58
2024/01/28 09:32:43;;;;;;;7.80;4.90;;;;;;;2.89;100.00;101288.38;109213;1253;72661;-60
2024/01/28 09:35:11;;;;;;;6.60;4.30;;;;;;;2.85;100.00;101289.54;109145;1257;59387;-58
2024/01/28 09:37:39;;;;;;;7.10;4.80;;;;;;;2.86;100.00;101288.45;109186;1254;59026;-58
2024/01/28 09:40:07;;;;;;;7.00;4.10;;;;;;;2.88;100.00;101292.56;109123;1252;74815;-64
2024/01/28 09:42:58;;;;;;;5.60;3.50;;;;;;;2.87;100.00;101293.98;109411;1253;65741;-59
2024/01/28 09:45:26;;;;;;;6.20;4.00;;;;;;;2.89;100.00;101292.52;109016;1253;71470;-59
2024/01/28 09:47:54;;;;;;;6.00;4.10;;;;;;;2.87;100.00;101295.05;109132;1258;59356;-58
2024/01/28 09:50:21;;;;;;;7.90;4.60;;;;;;;2.85;100.00;101291.21;109150;1252;58899;-58
2024/01/28 09:52:49;;;;;;;7.00;4.50;;;;;;;2.84;100.00;101293.67;109210;1253;74666;-58
2024/01/28 09:55:17;;;;;;;6.80;4.30;;;;;;;2.87;100.00;101295.02;109208;1253;66988;-58
2024/01/28 09:57:45;;;;;;;6.90;4.60;;;;;;;2.90;100.00;101298.96;109170;1253;72711;-59
2024/01/28 10:00:13;;;;;;;11.90;7.60;;;;;;;2.92;100.00;101307.22;109353;1254;58978;-58
2024/01/28 10:02:41;;;;;;;6.70;4.30;;;;;;;2.92;100.00;101307.08;109199;1253;58977;-58
2024/01/28 10:05:14;;;;;;;6.20;4.20;;;;;;;2.92;100.00;101306.19;109296;1254;74867;-58
2024/01/28 10:07:47;;;;;;;5.60;3.60;;;;;;;2.90;100.00;101306.13;109212;1253;67232;-59
2024/01/28 10:10:17;;;;;;;4.80;3.00;;;;;;;2.87;100.00;101303.27;109236;1254;72785;-58
2024/01/28 10:12:47;;;;;;;5.40;3.00;;;;;;;2.83;100.00;101303.70;109224;1253;58873;-59
2024/01/28 10:15:16;;;;;;;5.20;2.90;;;;;;;2.79;100.00;101303.48;109244;1254;60046;-59
2024/01/28 10:17:48;;;;;;;5.00;3.00;;;;;;;2.73;100.00;101306.66;109088;1259;73238;-59
2024/01/28 10:20:21;;;;;;;5.80;3.50;;;;;;;2.71;100.00;101307.64;109231;1253;66204;-58
2024/01/28 10:22:49;;;;;;;13.50;8.10;;;;;;;2.73;100.00;101310.64;109150;1254;72842;-59
2024/01/28 10:25:17;;;;;;;16.40;11.50;;;;;;;2.75;100.00;101312.34;109219;1254;58990;-60
2024/01/28 10:27:46;;;;;;;24.00;19.10;;;;;;;2.76;100.00;101314.86;109308;1253;59347;-59
2024/01/28 10:30:15;;;;;;;9.10;7.40;;;;;;;2.78;100.00;101314.75;109355;1256;73396;-58
2024/01/28 10:32:43;;;;;;;6.60;5.10;;;;;;;2.78;100.00;101318.15;109214;1253;67382;-57
2024/01/28 10:35:11;;;;;;;8.40;5.20;;;;;;;2.77;100.00;101318.22;109208;1254;72759;-58
2024/01/28 10:37:39;;;;;;;35.70;25.60;;;;;;;2.78;100.00;101322.48;109044;1254;59199;-59
2024/01/28 10:40:08;;;;;;;20.30;14.60;;;;;;;2.81;100.00;101322.39;109330;1252;58924;-59
2024/01/28 10:42:40;;;;;;;14.20;11.20;;;;;;;2.84;100.00;101323.42;109331;1254;74916;-60
2024/01/28 10:45:13;;;;;;;9.60;6.70;;;;;;;2.89;100.00;101323.02;109199;1253;65715;-59
2024/01/28 10:47:45;;;;;;;8.20;5.80;;;;;;;2.95;100.00;101326.78;109168;1253;70750;-60
2024/01/28 10:50:13;;;;;;;7.90;5.40;;;;;;;2.91;100.00;101326.83;109097;1254;58929;-59
2024/01/28 10:52:41;;;;;;;7.60;5.30;;;;;;;2.88;100.00;101327.59;109253;1259;60320;-58
2024/01/28 10:55:09;;;;;;;7.80;4.70;;;;;;;2.84;100.00;101330.26;109175;1253;76744;-64
2024/01/28 10:57:37;;;;;;;5.30;3.70;;;;;;;2.82;100.00;101328.20;109187;1254;66930;-58
2024/01/28 11:00:06;;;;;;;6.20;4.30;;;;;;;2.83;100.00;101330.16;109148;1254;72721;-58
2024/01/28 11:02:33;;;;;;;5.70;3.70;;;;;;;2.84;100.00;101332.16;109231;1253;59316;-60
2024/01/28 11:05:04;;;;;;;4.40;2.80;;;;;;;2.91;100.00;101333.40;109239;1259;60129;-58
2024/01/28 11:07:32;;;;;;;5.40;3.30;;;;;;;3.01;100.00;101333.67;109200;1255;76187;-59
2024/01/28 11:09:59;;;;;;;5.10;3.80;;;;;;;3.14;100.00;101335.71;109277;1254;65810;-59
2024/01/28 11:12:27;;;;;;;5.30;3.20;;;;;;;3.28;100.00;101338.36;109179;1254;71425;-58